createdAt,value
2023-05-09T00:01:13.551Z,22.15
2023-05-09T00:04:02.373Z,18.65
2023-05-09T00:06:49.405Z,18.95
2023-05-09T00:09:36.560Z,20.30
2023-05-09T00:12:23.700Z,21.90
2023-05-09T00:15:11.532Z,19.38
2023-05-09T00:17:59.592Z,20.13
2023-05-09T00:20:48.199Z,22.35
2023-05-09T00:23:35.448Z,20.40
2023-05-09T00:26:23.214Z,20.55
2023-05-09T00:29:10.731Z,21.20
2023-05-09T00:31:58.140Z,21.65
2023-05-09T00:34:46.585Z,22.13
2023-05-09T00:37:35.148Z,20.98
2023-05-09T00:40:22.545Z,20.60
2023-05-09T00:43:09.816Z,21.35
2023-05-09T00:45:56.879Z,20.80
2023-05-09T00:48:44.321Z,22.13
2023-05-09T00:51:34.092Z,21.90
2023-05-09T00:54:22.856Z,21.83
2023-05-09T00:57:10.038Z,21.63
2023-05-09T00:59:57.420Z,20.58
2023-05-09T01:02:48.118Z,20.35
2023-05-09T01:05:45.132Z,21.92
2023-05-09T01:08:45.791Z,21.58
2023-05-09T01:11:42.859Z,23.27
2023-05-09T01:14:43.569Z,20.45
2023-05-09T01:17:39.750Z,20.23
2023-05-09T01:20:34.969Z,19.05
2023-05-09T01:23:52.353Z,19.35
2023-05-09T01:26:39.093Z,25.13
2023-05-09T01:29:38.315Z,20.10
2023-05-09T01:32:28.385Z,23.13
2023-05-09T01:35:17.016Z,19.10
2023-05-09T01:38:14.467Z,23.15
2023-05-09T01:41:05.480Z,20.80
2023-05-09T01:43:56.221Z,24.38
2023-05-09T01:46:46.284Z,20.65
2023-05-09T01:49:36.476Z,23.90
2023-05-09T01:52:25.641Z,21.20
2023-05-09T01:55:13.953Z,21.35
2023-05-09T01:58:02.342Z,22.08
2023-05-09T02:00:49.906Z,22.63
2023-05-09T02:03:40.641Z,21.95
2023-05-09T02:06:30.325Z,23.60
2023-05-09T02:09:18.906Z,23.85
2023-05-09T02:12:06.215Z,24.38
2023-05-09T02:14:53.705Z,22.83
2023-05-09T02:17:40.821Z,21.60
2023-05-09T02:20:29.962Z,20.83
2023-05-09T02:23:17.062Z,21.58
2023-05-09T02:26:04.325Z,20.50
2023-05-09T02:28:52.331Z,26.55
2023-05-09T02:31:42.398Z,22.60
2023-05-09T02:34:29.507Z,20.60
2023-05-09T02:37:19.508Z,22.52
2023-05-09T02:40:10.746Z,22.52
2023-05-09T02:42:58.177Z,22.42
2023-05-09T02:45:45.294Z,24.35
2023-05-09T02:48:32.855Z,26.13
2023-05-09T02:51:20.134Z,23.42
2023-05-09T02:54:09.125Z,23.85
2023-05-09T02:56:56.030Z,22.42
2023-05-09T02:59:42.877Z,22.38
2023-05-09T03:02:30.357Z,22.70
2023-05-09T03:05:19.032Z,23.15
2023-05-09T03:08:06.512Z,23.48
2023-05-09T03:10:57.290Z,24.27
2023-05-09T03:13:44.297Z,21.20
2023-05-09T03:16:31.873Z,23.90
2023-05-09T03:19:19.868Z,22.73
2023-05-09T03:22:06.711Z,23.30
2023-05-09T03:24:58.458Z,23.88
2023-05-09T03:27:46.832Z,27.42
2023-05-09T03:30:36.999Z,23.23
2023-05-09T03:33:26.306Z,22.33
2023-05-09T03:36:15.542Z,25.67
2023-05-09T03:39:04.046Z,22.05
2023-05-09T03:41:51.187Z,25.58
2023-05-09T03:44:39.886Z,23.15
2023-05-09T03:47:27.670Z,25.42
2023-05-09T03:50:15.012Z,25.67
2023-05-09T03:53:03.461Z,25.02
2023-05-09T03:55:51.015Z,26.50
2023-05-09T03:58:38.606Z,25.83
2023-05-09T04:01:28.588Z,30.67
2023-05-09T04:04:18.117Z,26.60
2023-05-09T04:07:05.712Z,24.10
2023-05-09T04:09:52.669Z,23.02
2023-05-09T04:12:40.340Z,25.85
2023-05-09T04:15:27.691Z,27.77
2023-05-09T04:18:18.582Z,24.02
2023-05-09T04:21:06.109Z,21.70
2023-05-09T04:23:53.445Z,23.65
2023-05-09T04:26:47.669Z,24.15
2023-05-09T04:29:39.116Z,24.83
2023-05-09T04:32:28.064Z,24.90
2023-05-09T04:35:18.149Z,24.17
2023-05-09T04:38:08.769Z,23.23
2023-05-09T04:40:56.726Z,24.02
2023-05-09T04:43:43.814Z,25.05
2023-05-09T04:46:31.114Z,21.13
2023-05-09T04:49:18.269Z,22.65
2023-05-09T04:52:07.815Z,22.00
2023-05-09T04:54:55.548Z,25.08
2023-05-09T04:57:45.730Z,20.88
2023-05-09T05:00:32.852Z,20.55
2023-05-09T05:03:20.396Z,22.65
2023-05-09T05:06:07.660Z,20.85
2023-05-09T05:08:57.917Z,23.50
2023-05-09T05:11:57.040Z,24.40
2023-05-09T05:14:47.464Z,19.00
2023-05-09T05:17:38.753Z,22.60
2023-05-09T05:20:27.505Z,18.67
2023-05-09T05:23:14.836Z,18.75
2023-05-09T05:26:04.000Z,20.05
2023-05-09T05:28:55.863Z,20.23
2023-05-09T05:31:43.780Z,18.55
2023-05-09T05:34:30.943Z,18.05
2023-05-09T05:37:18.055Z,20.13
2023-05-09T05:40:05.694Z,19.98
2023-05-09T05:42:54.522Z,20.48
2023-05-09T05:45:42.976Z,19.85
2023-05-09T05:48:36.163Z,19.27
2023-05-09T05:51:24.091Z,17.38
2023-05-09T05:54:11.598Z,18.58
2023-05-09T05:56:59.462Z,20.55
2023-05-09T05:59:50.892Z,15.65
2023-05-09T06:02:38.954Z,16.35
2023-05-09T06:05:26.527Z,16.90
2023-05-09T06:08:14.022Z,16.58
2023-05-09T06:11:03.040Z,17.15
2023-05-09T06:13:50.246Z,20.98
2023-05-09T06:16:39.014Z,15.40
2023-05-09T06:19:26.603Z,15.23
2023-05-09T06:22:14.178Z,19.65
2023-05-09T06:25:01.451Z,17.30
2023-05-09T06:27:48.735Z,17.70
2023-05-09T06:30:35.785Z,19.35
2023-05-09T06:33:24.304Z,15.70
2023-05-09T06:36:12.071Z,17.35
2023-05-09T06:38:59.361Z,15.60
2023-05-09T06:41:46.678Z,14.82
2023-05-09T06:44:43.987Z,17.38
2023-05-09T06:47:31.296Z,19.15
2023-05-09T06:50:20.134Z,17.42
2023-05-09T06:53:07.321Z,17.58
2023-05-09T06:55:54.560Z,15.20
2023-05-09T06:58:42.041Z,15.23
2023-05-09T07:01:29.282Z,14.77
2023-05-09T07:04:16.519Z,16.52
2023-05-09T07:07:05.125Z,14.38
2023-05-09T07:09:55.266Z,16.23
2023-05-09T07:12:48.523Z,15.95
2023-05-09T07:15:42.134Z,11.45
2023-05-09T07:18:30.316Z,12.38
2023-05-09T07:21:17.738Z,15.18
2023-05-09T07:24:07.072Z,13.18
2023-05-09T07:26:54.485Z,13.88
2023-05-09T07:29:42.662Z,14.27
2023-05-09T07:32:30.156Z,14.35
2023-05-09T07:35:17.188Z,11.70
2023-05-09T07:38:06.461Z,14.35
2023-05-09T07:40:55.492Z,16.75
2023-05-09T07:43:42.803Z,15.60
2023-05-09T07:46:30.391Z,13.38
2023-05-09T07:49:18.237Z,15.25
2023-05-09T07:52:05.708Z,15.50
2023-05-09T07:54:54.710Z,14.80
2023-05-09T07:57:43.133Z,13.13
2023-05-09T08:00:30.113Z,16.92
2023-05-09T08:03:17.440Z,14.45
2023-05-09T08:06:05.470Z,12.38
2023-05-09T08:08:52.555Z,12.35
2023-05-09T08:11:39.543Z,14.90
2023-05-09T08:14:27.962Z,11.73
2023-05-09T08:17:15.008Z,12.68
2023-05-09T08:20:02.287Z,18.58
2023-05-09T08:22:52.537Z,10.77
2023-05-09T08:25:40.026Z,14.38
2023-05-09T08:28:28.843Z,10.65
2023-05-09T08:31:17.407Z,17.05
2023-05-09T08:34:04.263Z,12.07
2023-05-09T08:36:51.811Z,10.27
2023-05-09T08:39:39.627Z,11.57
2023-05-09T08:42:28.502Z,12.27
2023-05-09T08:45:30.471Z,8.52
2023-05-09T08:48:21.010Z,10.50
2023-05-09T08:51:08.672Z,8.63
2023-05-09T08:54:00.235Z,7.75
2023-05-09T08:56:47.286Z,9.90
2023-05-09T08:59:37.652Z,10.40
2023-05-09T09:02:24.521Z,8.25
2023-05-09T09:05:34.232Z,10.80
2023-05-09T09:08:21.186Z,7.45
2023-05-09T09:11:09.186Z,7.95
2023-05-09T09:13:57.179Z,7.60
2023-05-09T09:16:48.918Z,5.68
2023-05-09T09:19:38.514Z,7.97
2023-05-09T09:22:34.284Z,6.80
2023-05-09T09:25:21.624Z,8.02
2023-05-09T09:28:10.196Z,5.90
2023-05-09T09:30:57.564Z,7.32
2023-05-09T09:33:45.837Z,6.15
2023-05-09T09:36:34.787Z,6.22
2023-05-09T09:39:24.295Z,6.38
2023-05-09T09:42:13.720Z,7.07
2023-05-09T09:45:04.400Z,8.50
2023-05-09T09:47:51.824Z,10.57
2023-05-09T09:50:38.933Z,8.77
2023-05-09T09:53:30.583Z,8.93
2023-05-09T09:56:18.943Z,11.70
2023-05-09T09:59:17.771Z,15.85
2023-05-09T10:02:08.394Z,7.82
2023-05-09T10:04:55.632Z,8.10
2023-05-09T10:07:42.620Z,8.65
2023-05-09T10:10:32.252Z,10.98
2023-05-09T10:13:21.985Z,8.32
2023-05-09T10:16:10.752Z,8.73
2023-05-09T10:18:58.802Z,10.90
2023-05-09T10:21:48.428Z,9.05
2023-05-09T10:24:41.091Z,15.80
2023-05-09T10:27:32.348Z,10.90
2023-05-09T10:30:30.234Z,8.30
2023-05-09T10:33:25.390Z,12.38
2023-05-09T10:36:13.350Z,15.38
2023-05-09T10:39:01.430Z,15.45
2023-05-09T10:41:51.179Z,13.13
2023-05-09T10:44:40.231Z,10.15
2023-05-09T10:47:32.618Z,11.55
2023-05-09T10:50:22.662Z,14.10
2023-05-09T10:53:14.530Z,11.73
2023-05-09T10:56:02.070Z,13.80
2023-05-09T10:58:49.582Z,15.35
2023-05-09T11:01:39.640Z,12.73
2023-05-09T11:04:28.333Z,10.70
2023-05-09T11:07:30.337Z,10.20
2023-05-09T11:10:19.214Z,15.82
2023-05-09T11:13:06.164Z,14.45
2023-05-09T11:16:10.522Z,12.32
2023-05-09T11:18:57.451Z,13.88
2023-05-09T11:24:40.792Z,12.90
2023-05-09T11:27:29.649Z,15.77
2023-05-09T11:30:18.500Z,14.20
2023-05-09T11:33:07.109Z,15.70
2023-05-09T11:36:16.939Z,14.98
2023-05-09T11:39:06.395Z,16.48
2023-05-09T11:41:56.567Z,15.75
2023-05-09T11:44:44.392Z,18.85
2023-05-09T11:47:31.592Z,14.35
2023-05-09T11:50:20.064Z,17.15
2023-05-09T11:53:08.495Z,17.02
2023-05-09T11:55:55.787Z,17.48
2023-05-09T11:58:44.444Z,17.55
2023-05-09T12:01:32.369Z,14.73
2023-05-09T12:04:19.170Z,14.57
2023-05-09T12:07:06.517Z,19.45
2023-05-09T12:09:53.536Z,18.17
2023-05-09T12:12:45.318Z,21.27
2023-05-09T12:15:39.034Z,19.70
2023-05-09T12:18:25.834Z,15.95
2023-05-09T12:21:13.578Z,22.58
2023-05-09T12:24:00.785Z,17.75
2023-05-09T12:26:48.565Z,15.82
2023-05-09T12:29:36.273Z,17.25
2023-05-09T12:32:25.352Z,16.60
2023-05-09T12:35:12.704Z,16.85
2023-05-09T12:38:00.575Z,16.77
2023-05-09T12:40:49.903Z,15.98
2023-05-09T12:43:39.717Z,16.70
2023-05-09T12:46:27.448Z,14.15
2023-05-09T12:49:23.046Z,16.77
2023-05-09T12:52:20.628Z,18.67
2023-05-09T12:55:09.456Z,25.05
2023-05-09T12:58:01.673Z,19.45
2023-05-09T13:00:49.273Z,17.65
2023-05-09T13:03:38.935Z,17.02
2023-05-09T13:06:27.550Z,16.73
2023-05-09T13:09:15.021Z,21.00
2023-05-09T13:12:03.052Z,16.30
2023-05-09T13:14:50.199Z,14.13
2023-05-09T13:17:37.705Z,19.95
2023-05-09T13:20:24.923Z,17.33
2023-05-09T13:23:13.102Z,18.38
2023-05-09T13:26:00.159Z,21.02
2023-05-09T13:28:47.248Z,18.42
2023-05-09T13:31:34.730Z,16.65
2023-05-09T13:34:21.636Z,18.15
2023-05-09T13:37:09.291Z,17.10
2023-05-09T13:39:57.774Z,17.35
2023-05-09T13:42:45.112Z,19.45
2023-05-09T13:45:32.279Z,16.10
2023-05-09T13:48:19.701Z,18.25
2023-05-09T13:51:07.995Z,16.10
2023-05-09T13:53:55.733Z,17.13
2023-05-09T13:56:44.753Z,13.55
2023-05-09T13:59:32.761Z,16.42
2023-05-09T14:02:20.177Z,16.20
2023-05-09T14:05:07.890Z,15.07
2023-05-09T14:07:55.775Z,15.60
2023-05-09T14:10:43.042Z,17.17
2023-05-09T14:13:32.061Z,19.38
2023-05-09T14:16:19.496Z,17.15
2023-05-09T14:19:07.317Z,16.30
2023-05-09T14:21:54.814Z,13.93
2023-05-09T14:24:41.964Z,13.90
2023-05-09T14:27:29.042Z,16.70
2023-05-09T14:30:18.367Z,15.48
2023-05-09T14:33:05.749Z,12.20
2023-05-09T14:35:53.741Z,12.52
2023-05-09T14:38:41.898Z,11.90
2023-05-09T14:41:29.312Z,13.50
2023-05-09T14:44:16.814Z,14.52
2023-05-09T14:47:05.600Z,19.30
2023-05-09T14:49:52.925Z,15.57
2023-05-09T14:52:40.424Z,15.25
2023-05-09T14:55:28.225Z,19.38
2023-05-09T14:58:16.265Z,12.82
2023-05-09T15:01:04.345Z,11.82
2023-05-09T15:03:52.881Z,15.50
2023-05-09T15:06:41.159Z,12.88
2023-05-09T15:09:28.210Z,13.90
2023-05-09T15:12:15.198Z,9.95
2023-05-09T15:15:14.553Z,9.35
2023-05-09T15:18:02.525Z,12.60
2023-05-09T15:20:52.720Z,9.77
2023-05-09T15:23:40.569Z,13.90
2023-05-09T15:26:27.721Z,12.48
2023-05-09T15:29:16.311Z,15.05
2023-05-09T15:32:05.129Z,11.13
2023-05-09T15:34:52.903Z,13.88
2023-05-09T15:37:41.842Z,14.80
2023-05-09T15:40:29.498Z,10.88
2023-05-09T15:43:16.673Z,10.30
2023-05-09T15:46:03.982Z,9.98
2023-05-09T15:48:52.440Z,11.70
2023-05-09T15:51:40.835Z,11.88
2023-05-09T15:54:29.228Z,13.65
2023-05-09T15:57:17.017Z,14.13
2023-05-09T16:00:05.677Z,11.68
2023-05-09T16:03:00.082Z,14.38
2023-05-09T16:05:47.435Z,15.55
2023-05-09T16:08:34.653Z,17.67
2023-05-09T16:11:23.372Z,12.27
2023-05-09T16:14:11.927Z,12.07
2023-05-09T16:16:59.128Z,11.57
2023-05-09T16:19:46.276Z,11.95
2023-05-09T16:22:33.613Z,10.57
2023-05-09T16:25:20.648Z,10.90
2023-05-09T16:28:09.426Z,11.65
2023-05-09T16:30:56.611Z,11.57
2023-05-09T16:33:44.261Z,10.90
2023-05-09T16:36:32.792Z,10.68
2023-05-09T16:39:20.166Z,10.23
2023-05-09T16:42:07.206Z,10.48
2023-05-09T16:44:57.126Z,15.88
2023-05-09T16:47:44.495Z,10.40
2023-05-09T16:50:32.287Z,11.25
2023-05-09T16:53:19.858Z,12.90
2023-05-09T16:56:08.124Z,9.75
2023-05-09T16:58:55.078Z,9.23
2023-05-09T17:01:43.800Z,8.63
2023-05-09T17:04:31.031Z,9.65
2023-05-09T17:07:18.112Z,10.27
2023-05-09T17:10:05.604Z,9.75
2023-05-09T17:12:52.700Z,7.55
2023-05-09T17:15:39.947Z,9.43
2023-05-09T17:18:36.754Z,8.02
2023-05-09T17:21:25.428Z,11.05
2023-05-09T17:24:12.786Z,8.20
2023-05-09T17:27:00.056Z,9.93
2023-05-09T17:29:50.343Z,12.38
2023-05-09T17:32:37.706Z,8.45
2023-05-09T17:35:27.040Z,13.88
2023-05-09T17:38:14.556Z,13.27
2023-05-09T17:41:02.262Z,8.18
2023-05-09T17:43:51.985Z,9.95
2023-05-09T17:46:39.514Z,10.35
2023-05-09T17:49:28.279Z,11.13
2023-05-09T17:52:17.357Z,10.20
2023-05-09T17:55:05.209Z,14.13
2023-05-09T17:57:52.814Z,10.95
2023-05-09T18:00:40.002Z,7.85
2023-05-09T18:03:29.986Z,11.85
2023-05-09T18:06:17.796Z,8.45
2023-05-09T18:09:07.381Z,8.85
2023-05-09T18:11:54.775Z,8.40
2023-05-09T18:14:42.089Z,11.88
2023-05-09T18:17:29.474Z,9.60
2023-05-09T18:20:16.937Z,9.00
2023-05-09T18:23:04.496Z,13.48
2023-05-09T18:25:54.139Z,9.10
2023-05-09T18:28:41.490Z,6.75
2023-05-09T18:31:28.674Z,6.97
2023-05-09T18:34:16.002Z,10.27
2023-05-09T18:37:03.346Z,9.57
2023-05-09T18:39:50.510Z,9.23
2023-05-09T18:42:39.205Z,9.45
2023-05-09T18:45:26.757Z,10.05
2023-05-09T18:48:13.866Z,9.00
2023-05-09T18:51:00.890Z,9.15
2023-05-09T18:53:48.665Z,8.00
2023-05-09T18:56:39.583Z,7.30
2023-05-09T18:59:28.287Z,8.23
2023-05-09T19:02:15.291Z,12.20
2023-05-09T19:05:06.429Z,8.82
2023-05-09T19:07:54.254Z,11.40
2023-05-09T19:10:41.449Z,7.85
2023-05-09T19:13:29.202Z,7.28
2023-05-09T19:16:20.634Z,8.40
2023-05-09T19:19:08.052Z,8.70
2023-05-09T19:21:56.554Z,8.77
2023-05-09T19:24:43.964Z,9.15
2023-05-09T19:27:30.824Z,9.90
2023-05-09T19:30:19.050Z,9.15
2023-05-09T19:33:08.391Z,10.07
2023-05-09T19:35:55.896Z,10.02
2023-05-09T19:38:43.085Z,9.50
2023-05-09T19:41:30.483Z,8.55
2023-05-09T19:44:17.443Z,10.52
2023-05-09T19:47:05.459Z,10.05
2023-05-09T19:49:53.717Z,11.85
2023-05-09T19:52:41.186Z,13.52
2023-05-09T19:55:28.454Z,8.50
2023-05-09T19:58:17.748Z,9.15
2023-05-09T20:01:07.337Z,7.35
2023-05-09T20:03:54.712Z,9.18
2023-05-09T20:06:43.027Z,14.90
2023-05-09T20:09:32.393Z,10.18
2023-05-09T20:12:19.500Z,11.23
2023-05-09T20:15:08.299Z,11.35
2023-05-09T20:17:56.394Z,9.52
2023-05-09T20:20:44.166Z,9.88
2023-05-09T20:23:32.620Z,11.07
2023-05-09T20:26:19.595Z,13.48
2023-05-09T20:29:07.951Z,8.88
2023-05-09T20:31:55.036Z,10.88
2023-05-09T20:34:42.204Z,9.60
2023-05-09T20:37:29.049Z,12.13
2023-05-09T20:40:17.658Z,11.98
2023-05-09T20:43:05.598Z,11.20
2023-05-09T20:45:53.671Z,13.15
2023-05-09T20:48:40.525Z,8.63
2023-05-09T20:51:27.908Z,9.90
2023-05-09T20:54:15.028Z,8.85
2023-05-09T20:57:03.768Z,8.80
2023-05-09T20:59:50.693Z,10.02
2023-05-09T21:02:37.840Z,10.75
2023-05-09T21:05:25.007Z,7.20
2023-05-09T21:08:13.002Z,6.38
2023-05-09T21:10:59.953Z,5.85
2023-05-09T21:13:48.651Z,7.10
2023-05-09T21:16:35.780Z,5.55
2023-05-09T21:19:22.786Z,4.03
2023-05-09T21:22:10.109Z,2.95
2023-05-09T21:24:57.078Z,2.88
2023-05-09T21:27:44.769Z,3.13
2023-05-09T21:30:33.152Z,7.38
2023-05-09T21:33:20.314Z,4.30
2023-05-09T21:36:07.715Z,5.28
2023-05-09T21:38:54.984Z,6.18
2023-05-09T21:41:43.358Z,3.15
2023-05-09T21:44:30.714Z,6.07
2023-05-09T21:47:19.386Z,4.65
2023-05-09T21:50:07.190Z,2.40
2023-05-09T21:52:56.558Z,2.50
2023-05-09T21:55:43.370Z,3.17
2023-05-09T21:58:30.639Z,7.00
2023-05-09T22:01:19.570Z,4.38
2023-05-09T22:04:08.541Z,5.85
2023-05-09T22:06:55.668Z,2.83
2023-05-09T22:09:42.651Z,6.72
2023-05-09T22:12:29.606Z,2.30
2023-05-09T22:15:17.205Z,2.28
2023-05-09T22:18:04.366Z,2.55
2023-05-09T22:20:53.372Z,3.28
2023-05-09T22:23:40.476Z,2.03
2023-05-09T22:26:27.719Z,2.78
2023-05-09T22:29:17.750Z,3.03
2023-05-09T22:32:07.727Z,1.92
2023-05-09T22:34:55.389Z,2.65
2023-05-09T22:37:43.721Z,4.15
2023-05-09T22:40:31.676Z,3.15
2023-05-09T22:43:20.502Z,1.73
2023-05-09T22:46:07.846Z,2.88
2023-05-09T22:48:55.229Z,1.77
2023-05-09T22:51:42.303Z,4.93
2023-05-09T22:54:30.998Z,3.53
2023-05-09T22:57:20.838Z,2.17
2023-05-09T23:00:08.825Z,4.10
2023-05-09T23:02:55.937Z,2.78
2023-05-09T23:05:44.077Z,6.40
2023-05-09T23:08:31.190Z,3.47
2023-05-09T23:11:20.519Z,3.38
2023-05-09T23:14:07.652Z,4.93
2023-05-09T23:16:56.211Z,4.60
2023-05-09T23:19:43.356Z,2.50
2023-05-09T23:22:30.910Z,3.92
2023-05-09T23:25:18.236Z,3.60
2023-05-09T23:28:06.878Z,2.80
2023-05-09T23:30:55.767Z,1.90
2023-05-09T23:33:44.086Z,1.95
2023-05-09T23:36:31.573Z,1.90
2023-05-09T23:39:18.535Z,1.65
2023-05-09T23:42:05.581Z,2.50
2023-05-09T23:44:54.210Z,3.75
2023-05-09T23:47:41.671Z,2.40
2023-05-09T23:50:28.860Z,3.50
2023-05-09T23:53:16.722Z,3.03
2023-05-09T23:56:04.159Z,2.85
2023-05-09T23:58:51.388Z,3.50
